createdAt,value
2018-12-17T00:01:23.062Z,128.93
2018-12-17T00:03:51.637Z,132.20
2018-12-17T00:06:20.454Z,127.83
2018-12-17T00:08:49.275Z,130.27
2018-12-17T00:11:18.235Z,124.60
2018-12-17T00:13:46.786Z,126.73
2018-12-17T00:16:16.444Z,130.10
2018-12-17T00:18:44.992Z,132.53
2018-12-17T00:21:13.831Z,128.23
2018-12-17T00:23:42.397Z,137.87
2018-12-17T00:26:11.194Z,143.03
2018-12-17T00:28:39.721Z,141.10
2018-12-17T00:31:08.628Z,131.93
2018-12-17T00:33:37.195Z,133.13
2018-12-17T00:36:06.161Z,138.67
2018-12-17T00:38:34.735Z,136.90
2018-12-17T00:41:03.530Z,153.43
2018-12-17T00:43:32.415Z,157.83
2018-12-17T00:46:01.109Z,153.63
2018-12-17T00:48:29.933Z,152.03
2018-12-17T00:50:58.809Z,143.50
2018-12-17T00:53:27.474Z,147.17
2018-12-17T00:55:56.196Z,148.27
2018-12-17T00:58:24.750Z,139.13
2018-12-17T01:00:53.555Z,137.43
2018-12-17T01:03:22.092Z,134.80
2018-12-17T01:05:50.949Z,141.63
2018-12-17T01:08:19.502Z,137.17
2018-12-17T01:10:48.363Z,151.43
2018-12-17T01:13:16.918Z,146.13
2018-12-17T01:15:45.571Z,150.73
2018-12-17T01:18:14.097Z,139.73
2018-12-17T01:20:42.869Z,147.97
2018-12-17T01:23:11.436Z,151.47
2018-12-17T01:25:40.159Z,147.80
2018-12-17T01:28:08.835Z,136.07
2018-12-17T01:30:37.572Z,127.87
2018-12-17T01:33:06.135Z,125.73
2018-12-17T01:35:34.746Z,124.03
2018-12-17T01:38:03.318Z,114.63
2018-12-17T01:40:32.093Z,125.57
2018-12-17T01:43:00.660Z,122.63
2018-12-17T01:45:29.463Z,125.17
2018-12-17T01:47:58.044Z,121.50
2018-12-17T01:50:26.940Z,119.73
2018-12-17T01:52:55.502Z,120.87
2018-12-17T01:55:24.288Z,122.17
2018-12-17T01:57:52.843Z,118.63
2018-12-17T02:00:21.578Z,120.07
2018-12-17T02:02:50.163Z,127.23
2018-12-17T02:05:18.920Z,129.17
2018-12-17T02:07:47.510Z,126.17
2018-12-17T02:10:16.287Z,131.43
2018-12-17T02:12:44.825Z,129.50
2018-12-17T02:15:13.553Z,134.00
2018-12-17T02:17:42.132Z,129.20
2018-12-17T02:20:10.754Z,124.10
2018-12-17T02:22:39.304Z,131.40
2018-12-17T02:25:08.028Z,133.93
2018-12-17T02:27:36.559Z,143.10
2018-12-17T02:30:05.853Z,134.53
2018-12-17T02:32:34.465Z,140.17
2018-12-17T02:35:03.387Z,132.80
2018-12-17T02:37:31.947Z,136.47
2018-12-17T02:40:00.953Z,134.67
2018-12-17T02:42:29.506Z,134.33
2018-12-17T02:44:58.252Z,140.97
2018-12-17T02:47:26.812Z,132.97
2018-12-17T02:49:55.710Z,126.60
2018-12-17T02:52:24.368Z,133.87
2018-12-17T02:54:53.184Z,140.67
2018-12-17T02:57:21.723Z,145.27
2018-12-17T02:59:50.491Z,137.20
2018-12-17T03:02:19.070Z,135.83
2018-12-17T03:04:47.956Z,139.43
2018-12-17T03:07:16.511Z,143.20
2018-12-17T03:09:45.350Z,138.57
2018-12-17T03:12:13.892Z,155.53
2018-12-17T03:14:42.786Z,152.43
2018-12-17T03:17:11.340Z,143.30
2018-12-17T03:19:39.968Z,141.30
2018-12-17T03:22:08.514Z,162.13
2018-12-17T03:24:37.356Z,150.00
2018-12-17T03:27:05.919Z,155.17
2018-12-17T03:29:34.574Z,155.00
2018-12-17T03:32:03.107Z,171.00
2018-12-17T03:34:31.813Z,170.47
2018-12-17T03:37:00.383Z,171.63
2018-12-17T03:39:29.026Z,177.63
2018-12-17T03:41:57.695Z,161.23
2018-12-17T03:44:26.317Z,154.67
2018-12-17T03:46:54.948Z,153.47
2018-12-17T03:49:23.722Z,158.73
2018-12-17T03:51:52.332Z,154.80
2018-12-17T03:54:21.067Z,147.60
2018-12-17T03:56:49.623Z,166.97
2018-12-17T03:59:18.350Z,176.53
2018-12-17T04:01:46.910Z,170.03
2018-12-17T04:04:15.683Z,166.40
2018-12-17T04:06:44.239Z,167.70
2018-12-17T04:09:13.099Z,161.27
2018-12-17T04:11:41.652Z,164.80
2018-12-17T04:14:10.469Z,158.03
2018-12-17T04:16:39.027Z,155.73
2018-12-17T04:19:07.968Z,183.10
2018-12-17T04:21:36.517Z,168.40
2018-12-17T04:24:05.352Z,184.17
2018-12-17T04:26:33.900Z,188.83
2018-12-17T04:29:06.760Z,186.93
2018-12-17T04:31:33.387Z,178.90
2018-12-17T04:34:02.256Z,163.20
2018-12-17T04:36:30.838Z,169.77
2018-12-17T04:38:59.666Z,162.23
2018-12-17T04:41:28.325Z,161.47
2018-12-17T04:43:56.983Z,168.43
2018-12-17T04:46:25.608Z,174.80
2018-12-17T04:48:54.276Z,168.13
2018-12-17T04:51:23.070Z,166.17
2018-12-17T04:53:51.682Z,163.10
2018-12-17T04:56:20.231Z,174.20
2018-12-17T04:58:48.783Z,175.40
2018-12-17T05:01:17.553Z,183.70
2018-12-17T05:03:46.095Z,180.63
2018-12-17T05:06:14.822Z,173.77
2018-12-17T05:08:43.360Z,171.47
2018-12-17T05:11:12.196Z,171.47
2018-12-17T05:13:40.967Z,170.17
2018-12-17T05:16:09.690Z,171.53
2018-12-17T05:18:38.249Z,170.33
2018-12-17T05:21:07.071Z,176.10
2018-12-17T05:23:35.603Z,171.10
2018-12-17T05:26:04.453Z,179.40
2018-12-17T05:28:33.001Z,173.23
2018-12-17T05:31:01.789Z,171.47
2018-12-17T05:33:30.401Z,183.20
2018-12-17T05:35:59.196Z,170.57
2018-12-17T05:38:27.762Z,183.90
2018-12-17T05:40:57.000Z,179.47
2018-12-17T05:43:25.573Z,152.83
2018-12-17T05:45:54.487Z,167.43
2018-12-17T05:48:23.125Z,174.77
2018-12-17T05:50:51.949Z,177.70
2018-12-17T05:53:20.470Z,169.73
2018-12-17T05:55:49.129Z,160.03
2018-12-17T05:58:17.678Z,155.17
2018-12-17T06:00:46.355Z,153.03
2018-12-17T06:03:14.889Z,152.47
2018-12-17T06:05:43.831Z,143.83
2018-12-17T06:08:13.307Z,143.27
2018-12-17T06:10:42.050Z,154.50
2018-12-17T06:13:10.587Z,150.53
2018-12-17T06:15:39.454Z,132.80
2018-12-17T06:18:08.017Z,154.23
2018-12-17T06:20:36.966Z,134.73
2018-12-17T06:23:05.476Z,123.60
2018-12-17T06:25:34.647Z,127.73
2018-12-17T06:28:03.295Z,134.90
2018-12-17T06:30:32.217Z,123.60
2018-12-17T06:33:00.730Z,135.97
2018-12-17T06:35:29.415Z,144.20
2018-12-17T06:37:57.944Z,150.10
2018-12-17T06:40:26.647Z,153.37
2018-12-17T06:42:55.205Z,146.77
2018-12-17T06:45:24.063Z,146.13
2018-12-17T06:47:52.703Z,134.03
2018-12-17T06:50:21.532Z,137.57
2018-12-17T06:52:50.065Z,141.47
2018-12-17T06:55:18.917Z,160.37
2018-12-17T06:57:47.879Z,166.40
2018-12-17T07:00:16.689Z,182.83
2018-12-17T07:02:45.226Z,178.07
2018-12-17T07:05:14.084Z,181.47
2018-12-17T07:07:42.635Z,185.23
2018-12-17T07:10:11.560Z,187.30
2018-12-17T07:12:40.192Z,180.47
2018-12-17T07:15:08.971Z,191.23
2018-12-17T07:17:37.526Z,176.60
2018-12-17T07:20:06.457Z,179.13
2018-12-17T07:22:35.021Z,188.77
2018-12-17T07:25:04.115Z,187.80
2018-12-17T07:27:32.698Z,189.10
2018-12-17T07:30:01.496Z,192.47
2018-12-17T07:32:30.022Z,189.13
2018-12-17T07:34:59.093Z,178.10
2018-12-17T07:37:28.006Z,189.33
2018-12-17T07:39:56.751Z,178.77
2018-12-17T07:42:25.316Z,184.13
2018-12-17T07:44:54.031Z,177.33
2018-12-17T07:47:22.600Z,184.63
2018-12-17T07:49:51.411Z,177.47
2018-12-17T07:52:19.984Z,187.83
2018-12-17T07:54:48.854Z,188.90
2018-12-17T07:57:17.661Z,192.73
2018-12-17T07:59:46.468Z,179.80
2018-12-17T08:02:15.222Z,175.93
2018-12-17T08:04:44.083Z,193.70
2018-12-17T08:07:12.622Z,188.17
2018-12-17T08:09:41.465Z,201.43
2018-12-17T08:12:10.019Z,202.70
2018-12-17T08:14:38.943Z,202.50
2018-12-17T08:17:07.618Z,193.97
2018-12-17T08:19:36.401Z,195.57
2018-12-17T08:22:04.987Z,214.90
2018-12-17T08:24:33.892Z,200.70
2018-12-17T08:27:02.505Z,212.97
2018-12-17T08:29:31.075Z,197.37
2018-12-17T08:31:59.674Z,228.47
2018-12-17T08:34:28.550Z,224.30
2018-12-17T08:36:57.099Z,227.83
2018-12-17T08:39:26.033Z,227.63
2018-12-17T08:41:54.582Z,234.07
2018-12-17T08:44:23.310Z,235.70
2018-12-17T08:46:51.867Z,235.97
2018-12-17T08:49:20.582Z,261.10
2018-12-17T08:51:49.151Z,242.70
2018-12-17T08:54:17.973Z,248.07
2018-12-17T08:56:46.506Z,253.03
2018-12-17T08:59:15.471Z,254.03
2018-12-17T09:01:44.200Z,232.03
2018-12-17T09:04:13.237Z,233.07
2018-12-17T09:06:41.957Z,245.50
2018-12-17T09:09:10.823Z,235.40
2018-12-17T09:11:39.379Z,238.27
2018-12-17T09:14:08.437Z,219.27
2018-12-17T09:16:37.067Z,229.73
2018-12-17T09:19:05.985Z,219.00
2018-12-17T09:21:34.590Z,228.63
2018-12-17T09:24:03.420Z,224.03
2018-12-17T09:26:32.623Z,220.63
2018-12-17T09:29:01.503Z,217.23
2018-12-17T09:31:30.063Z,217.43
2018-12-17T09:33:58.848Z,222.97
2018-12-17T09:36:27.389Z,217.87
2018-12-17T09:38:56.242Z,225.10
2018-12-17T09:41:24.800Z,220.67
2018-12-17T09:43:53.726Z,214.60
2018-12-17T09:46:22.442Z,206.50
2018-12-17T09:48:51.310Z,223.93
2018-12-17T09:51:19.925Z,220.10
2018-12-17T09:53:48.876Z,217.93
2018-12-17T09:56:17.414Z,236.33
2018-12-17T09:58:46.146Z,237.77
2018-12-17T10:01:14.737Z,218.00
2018-12-17T10:03:43.534Z,227.67
2018-12-17T10:06:12.107Z,238.70
2018-12-17T10:08:41.119Z,238.20
2018-12-17T10:11:09.697Z,235.73
2018-12-17T10:13:38.371Z,231.80
2018-12-17T10:16:06.967Z,234.23
2018-12-17T10:18:36.963Z,232.23
2018-12-17T10:21:05.830Z,216.60
2018-12-17T10:23:34.848Z,220.33
2018-12-17T10:26:03.554Z,245.60
2018-12-17T10:28:32.388Z,229.80
2018-12-17T10:31:01.010Z,199.37
2018-12-17T10:33:29.650Z,187.87
2018-12-17T10:35:58.227Z,188.07
2018-12-17T10:38:27.133Z,174.50
2018-12-17T10:40:55.722Z,151.23
2018-12-17T10:43:24.486Z,154.30
2018-12-17T10:45:53.060Z,151.60
2018-12-17T10:48:21.923Z,160.03
2018-12-17T10:50:50.491Z,173.00
2018-12-17T10:53:19.330Z,170.67
2018-12-17T10:55:47.935Z,160.70
2018-12-17T10:58:16.674Z,157.83
2018-12-17T11:00:50.656Z,132.17
2018-12-17T11:03:23.690Z,118.13
2018-12-17T11:05:54.079Z,96.97
2018-12-17T11:08:23.008Z,87.53
2018-12-17T11:10:51.555Z,79.87
2018-12-17T11:13:20.456Z,76.43
2018-12-17T11:15:49.032Z,68.57
2018-12-17T11:18:17.952Z,70.00
2018-12-17T11:20:46.504Z,77.90
2018-12-17T11:23:15.315Z,66.60
2018-12-17T11:25:43.860Z,71.23
2018-12-17T11:28:12.672Z,82.63
2018-12-17T11:30:46.487Z,65.27
2018-12-17T11:33:12.265Z,62.93
2018-12-17T11:35:41.369Z,62.60
2018-12-17T11:38:10.357Z,66.60
2018-12-17T11:40:38.989Z,67.10
2018-12-17T11:43:07.715Z,69.27
2018-12-17T11:45:36.394Z,64.43
2018-12-17T11:48:05.183Z,62.97
2018-12-17T11:50:33.744Z,80.57
2018-12-17T11:53:02.587Z,80.80
2018-12-17T11:55:31.111Z,66.73
2018-12-17T11:58:10.992Z,74.90
2018-12-17T12:00:41.859Z,78.90
2018-12-17T12:03:10.745Z,76.07
2018-12-17T12:05:39.289Z,80.27
2018-12-17T12:08:08.115Z,78.87
2018-12-17T12:10:43.297Z,78.00
2018-12-17T12:13:12.132Z,78.27
2018-12-17T12:15:40.699Z,82.47
2018-12-17T12:18:09.412Z,81.57
2018-12-17T12:20:38.081Z,80.00
2018-12-17T12:23:07.026Z,76.53
2018-12-17T12:25:35.570Z,80.03
2018-12-17T12:28:04.410Z,72.77
2018-12-17T12:30:33.002Z,77.47
2018-12-17T12:33:01.760Z,81.27
2018-12-17T12:35:30.423Z,78.60
2018-12-17T12:37:59.219Z,70.57
2018-12-17T12:40:27.787Z,75.33
2018-12-17T12:42:56.388Z,80.77
2018-12-17T12:45:24.984Z,76.40
2018-12-17T12:47:53.904Z,79.13
2018-12-17T12:50:22.458Z,79.67
2018-12-17T12:52:51.274Z,78.40
2018-12-17T12:55:19.815Z,77.30
2018-12-17T12:57:48.678Z,73.77
2018-12-17T13:00:17.283Z,76.40
2018-12-17T13:02:46.149Z,80.67
2018-12-17T13:05:14.699Z,75.13
2018-12-17T13:07:43.503Z,73.20
2018-12-17T13:10:13.313Z,73.97
2018-12-17T13:12:42.455Z,75.70
2018-12-17T13:15:11.102Z,72.23
2018-12-17T13:17:39.919Z,74.90
2018-12-17T13:20:09.654Z,74.07
2018-12-17T13:22:38.539Z,81.00
2018-12-17T13:25:10.438Z,77.17
2018-12-17T13:27:39.311Z,71.30
2018-12-17T13:30:09.341Z,80.73
2018-12-17T13:32:38.397Z,88.40
2018-12-17T13:35:08.307Z,81.87
2018-12-17T13:37:37.121Z,77.20
2018-12-17T13:40:07.964Z,86.67
2018-12-17T13:42:36.893Z,83.30
2018-12-17T13:45:06.129Z,76.03
2018-12-17T13:47:34.975Z,95.47
2018-12-17T13:50:08.833Z,87.90
2018-12-17T13:52:43.113Z,82.47
2018-12-17T13:55:12.014Z,80.23
2018-12-17T13:57:40.825Z,80.37
2018-12-17T14:00:11.777Z,84.10
2018-12-17T14:02:40.799Z,82.23
2018-12-17T14:05:09.557Z,90.73
2018-12-17T14:07:38.381Z,86.87
2018-12-17T14:10:14.519Z,93.63
2018-12-17T14:12:43.350Z,90.23
2018-12-17T14:15:11.923Z,78.93
2018-12-17T14:17:45.105Z,88.70
2018-12-17T14:20:19.028Z,90.63
2018-12-17T14:22:47.931Z,87.27
2018-12-17T14:25:16.504Z,97.67
2018-12-17T14:27:45.309Z,93.70
2018-12-17T14:30:13.982Z,94.93
2018-12-17T14:32:42.819Z,91.40
2018-12-17T14:35:11.465Z,100.17
2018-12-17T14:37:45.924Z,93.53
2018-12-17T14:40:15.359Z,91.53
2018-12-17T14:42:44.633Z,95.13
2018-12-17T14:45:13.227Z,93.13
2018-12-17T14:47:42.465Z,100.97
2018-12-17T14:50:11.051Z,99.27
2018-12-17T14:52:39.879Z,104.33
2018-12-17T14:55:08.750Z,104.40
2018-12-17T14:57:37.914Z,119.03
2018-12-17T15:00:07.715Z,117.57
2018-12-17T15:02:36.516Z,115.23
2018-12-17T15:05:05.574Z,122.30
2018-12-17T15:07:34.484Z,141.40
2018-12-17T15:10:03.026Z,128.00
2018-12-17T15:12:31.899Z,150.73
2018-12-17T15:15:00.450Z,156.87
2018-12-17T15:17:29.388Z,159.67
2018-12-17T15:19:58.021Z,158.47
2018-12-17T15:22:26.910Z,172.17
2018-12-17T15:24:55.658Z,180.67
2018-12-17T15:27:24.611Z,175.67
2018-12-17T15:29:53.333Z,185.53
2018-12-17T15:32:22.291Z,196.00
2018-12-17T15:34:50.919Z,235.77
2018-12-17T15:37:19.782Z,236.50
2018-12-17T15:39:48.717Z,224.23
2018-12-17T15:42:17.632Z,257.00
2018-12-17T15:44:46.604Z,243.43
2018-12-17T15:47:15.457Z,250.37
2018-12-17T15:49:44.066Z,233.93
2018-12-17T15:52:13.008Z,224.23
2018-12-17T15:54:41.724Z,235.43
2018-12-17T15:57:10.802Z,228.53
2018-12-17T15:59:39.648Z,205.10
2018-12-17T16:02:08.585Z,204.83
2018-12-17T16:04:37.136Z,205.90
2018-12-17T16:07:06.147Z,212.40
2018-12-17T16:09:34.795Z,188.20
2018-12-17T16:12:03.826Z,194.77
2018-12-17T16:14:32.499Z,181.87
2018-12-17T16:17:01.387Z,175.43
2018-12-17T16:19:30.200Z,175.47
2018-12-17T16:21:59.152Z,179.87
2018-12-17T16:24:27.756Z,173.27
2018-12-17T16:26:58.068Z,182.90
2018-12-17T16:29:26.623Z,177.13
2018-12-17T16:31:57.523Z,188.00
2018-12-17T16:34:26.262Z,183.60
2018-12-17T16:36:55.384Z,192.30
2018-12-17T16:39:24.136Z,172.00
2018-12-17T16:41:53.449Z,152.33
2018-12-17T16:44:22.059Z,158.03
2018-12-17T16:46:50.866Z,136.87
2018-12-17T16:49:19.497Z,136.60
2018-12-17T16:51:48.371Z,132.50
2018-12-17T16:54:21.221Z,161.27
2018-12-17T16:56:50.467Z,163.90
2018-12-17T16:59:19.113Z,171.83
2018-12-17T17:01:48.013Z,200.80
2018-12-17T17:04:16.597Z,202.57
2018-12-17T17:06:45.624Z,202.70
2018-12-17T17:09:14.384Z,200.13
2018-12-17T17:11:43.235Z,192.60
2018-12-17T17:14:12.087Z,172.70
2018-12-17T17:16:41.114Z,193.07
2018-12-17T17:19:09.823Z,246.83
2018-12-17T17:21:38.809Z,210.30
2018-12-17T17:24:07.571Z,240.40
2018-12-17T17:26:36.461Z,232.10
2018-12-17T17:29:05.047Z,223.23
2018-12-17T17:31:34.196Z,227.77
2018-12-17T17:34:02.797Z,225.40
2018-12-17T17:36:31.552Z,222.30
2018-12-17T17:39:00.280Z,238.57
2018-12-17T17:41:29.063Z,264.10
2018-12-17T17:43:57.618Z,260.23
2018-12-17T17:46:26.935Z,258.77
2018-12-17T17:48:55.865Z,250.13
2018-12-17T17:51:24.807Z,234.63
2018-12-17T17:53:53.417Z,239.13
2018-12-17T17:56:22.147Z,248.90
2018-12-17T17:58:50.906Z,249.70
2018-12-17T18:01:19.782Z,246.90
2018-12-17T18:03:48.398Z,249.20
2018-12-17T18:06:17.390Z,265.87
2018-12-17T18:08:46.190Z,259.50
2018-12-17T18:11:15.134Z,258.13
2018-12-17T18:13:43.712Z,282.13
2018-12-17T18:16:12.521Z,267.00
2018-12-17T18:18:41.192Z,260.03
2018-12-17T18:21:10.134Z,271.20
2018-12-17T18:23:38.726Z,250.43
2018-12-17T18:26:07.682Z,260.20
2018-12-17T18:28:36.338Z,236.00
2018-12-17T18:31:05.278Z,235.07
2018-12-17T18:33:34.654Z,227.47
2018-12-17T18:36:03.570Z,235.43
2018-12-17T18:38:32.331Z,234.80
2018-12-17T18:41:01.116Z,222.83
2018-12-17T18:43:29.857Z,209.73
2018-12-17T18:45:58.743Z,210.10
2018-12-17T18:48:27.296Z,208.03
2018-12-17T18:50:56.347Z,207.90
2018-12-17T18:53:24.918Z,198.87
2018-12-17T18:55:53.796Z,176.17
2018-12-17T18:58:22.501Z,178.87
2018-12-17T19:00:51.289Z,171.50
2018-12-17T19:03:19.843Z,170.00
2018-12-17T19:05:48.693Z,166.80
2018-12-17T19:08:17.513Z,162.93
2018-12-17T19:10:51.479Z,163.67
2018-12-17T19:13:20.217Z,163.00
2018-12-17T19:15:49.170Z,170.57
2018-12-17T19:18:17.845Z,164.07
2018-12-17T19:20:47.346Z,164.80
2018-12-17T19:23:16.144Z,165.13
2018-12-17T19:25:45.037Z,168.27
2018-12-17T19:28:13.708Z,172.60
2018-12-17T19:30:43.466Z,172.23
2018-12-17T19:33:12.413Z,174.13
2018-12-17T19:35:41.403Z,157.83
2018-12-17T19:38:10.183Z,157.83
2018-12-17T19:40:39.224Z,142.87
2018-12-17T19:43:07.840Z,153.67
2018-12-17T19:45:36.588Z,150.87
2018-12-17T19:48:05.367Z,149.93
2018-12-17T19:50:34.176Z,163.57
2018-12-17T19:53:02.844Z,167.43
2018-12-17T19:55:31.680Z,164.50
2018-12-17T19:58:00.403Z,177.60
2018-12-17T20:00:29.408Z,230.30
2018-12-17T20:02:58.087Z,227.90
2018-12-17T20:05:26.974Z,242.03
2018-12-17T20:07:55.918Z,211.03
2018-12-17T20:10:27.561Z,189.07
2018-12-17T20:12:56.302Z,186.63
2018-12-17T20:15:25.154Z,184.60
2018-12-17T20:17:53.985Z,181.27
2018-12-17T20:20:23.230Z,175.33
2018-12-17T20:22:51.929Z,181.67
2018-12-17T20:25:20.735Z,160.50
2018-12-17T20:27:49.523Z,162.23
2018-12-17T20:30:18.447Z,148.67
2018-12-17T20:32:53.446Z,152.60
2018-12-17T20:35:18.328Z,151.20
2018-12-17T20:37:46.898Z,145.63
2018-12-17T20:40:17.203Z,145.57
2018-12-17T20:42:47.200Z,165.07
2018-12-17T20:45:16.931Z,156.30
2018-12-17T20:47:47.191Z,164.37
2018-12-17T20:50:16.409Z,159.33
2018-12-17T20:52:45.295Z,151.87
2018-12-17T20:55:14.369Z,163.47
2018-12-17T20:57:43.294Z,159.47
2018-12-17T21:00:12.505Z,165.37
2018-12-17T21:02:41.389Z,170.10
2018-12-17T21:05:10.535Z,168.60
2018-12-17T21:07:39.556Z,175.77
2018-12-17T21:10:09.756Z,181.47
2018-12-17T21:12:38.379Z,164.23
2018-12-17T21:15:07.233Z,176.17
2018-12-17T21:17:36.237Z,173.30
2018-12-17T21:20:05.309Z,166.37
2018-12-17T21:22:33.911Z,164.83
2018-12-17T21:25:02.963Z,162.40
2018-12-17T21:27:31.765Z,166.53
2018-12-17T21:30:00.813Z,162.67
2018-12-17T21:32:29.848Z,151.83
2018-12-17T21:34:58.824Z,152.70
2018-12-17T21:37:27.738Z,150.53
2018-12-17T21:39:56.822Z,163.00
2018-12-17T21:42:25.585Z,153.37
2018-12-17T21:44:54.585Z,160.17
2018-12-17T21:47:23.320Z,156.83
2018-12-17T21:49:52.169Z,154.93
2018-12-17T21:52:20.860Z,146.37
2018-12-17T21:54:50.299Z,148.13
2018-12-17T21:57:19.047Z,153.03
2018-12-17T21:59:48.386Z,130.43
2018-12-17T22:02:17.108Z,124.10
2018-12-17T22:04:45.962Z,122.27
2018-12-17T22:07:14.587Z,128.73
2018-12-17T22:09:43.255Z,127.07
2018-12-17T22:12:11.823Z,119.27
2018-12-17T22:14:40.541Z,113.07
2018-12-17T22:17:09.266Z,126.10
2018-12-17T22:19:38.366Z,115.83
2018-12-17T22:22:07.469Z,115.60
2018-12-17T22:24:36.765Z,117.60
2018-12-17T22:27:05.322Z,128.70
2018-12-17T22:29:34.253Z,125.40
2018-12-17T22:32:02.809Z,121.50
2018-12-17T22:34:31.766Z,117.10
2018-12-17T22:37:00.605Z,112.20
2018-12-17T22:39:29.639Z,109.93
2018-12-17T22:41:58.262Z,128.87
2018-12-17T22:44:27.131Z,120.90
2018-12-17T22:46:55.782Z,119.53
2018-12-17T22:49:24.807Z,128.40
2018-12-17T22:51:53.379Z,120.40
2018-12-17T22:54:22.293Z,120.50
2018-12-17T22:56:50.881Z,130.27
2018-12-17T22:59:19.772Z,129.80
2018-12-17T23:01:48.395Z,127.53
2018-12-17T23:04:17.296Z,125.70
2018-12-17T23:06:45.981Z,131.97
2018-12-17T23:09:13.420Z,132.67
2018-12-17T23:11:59.116Z,126.70
2018-12-17T23:14:38.789Z,134.23
2018-12-17T23:17:18.489Z,131.60
2018-12-17T23:19:48.223Z,128.57
2018-12-17T23:22:17.161Z,135.83
2018-12-17T23:24:45.746Z,148.60
2018-12-17T23:27:14.652Z,136.03
2018-12-17T23:29:43.225Z,146.17
2018-12-17T23:32:12.047Z,138.23
2018-12-17T23:34:40.880Z,134.40
2018-12-17T23:37:09.804Z,133.17
2018-12-17T23:39:38.519Z,124.63
2018-12-17T23:42:07.416Z,126.97
2018-12-17T23:44:36.784Z,122.27
2018-12-17T23:47:05.426Z,132.83
2018-12-17T23:49:34.097Z,138.20
2018-12-17T23:52:02.829Z,129.60
2018-12-17T23:54:31.438Z,131.27
2018-12-17T23:57:00.473Z,137.10
2018-12-17T23:59:29.038Z,141.90
